Aviation Digital Data Service (ADDS)

Output produced by TAFs form (0026 UTC 27 May 2017)
found at http://www.aviationweather.gov/adds/tafs/
 
METAR text: RJOA 270000Z 01004KT 9999 FEW020 SCT025 15/08 Q1012
Conditions at: RJOA (NEW HIROSHIMA , JP) observed 0000 UTC 27 May 2017
Temperature: 15.0°C (59°F)
Dewpoint: 8.0°C (46°F) [RH = 63%]
Pressure (altimeter): 29.88 inches Hg (1012.0 mb)
Winds: from the N (10 degrees) at 5 MPH (4 knots; 2.1 m/s)
Visibility: 6 or more miles (10+ km)
Ceiling: at least 12,000 feet AGL
Clouds: few clouds at 2000 feet AGL
scattered clouds at 2500 feet AGL
Weather: no significant weather observed at this time

Forecast for: RJOA (NEW HIROSHIMA , JP)
Text: TAF RJOA 262309Z 2700/2806 31007KT 9999 FEW025 SCT035
Forecast period: 0000 UTC 27 May 2017 to 0600 UTC 28 May 2017
Forecast type: FROM: standard forecast or significant change
Winds: from the NW (310 degrees) at 8 MPH (7 knots; 3.6 m/s)
Visibility: 6 or more miles (10+ km)
Clouds: few clouds at 2500 feet AGL
scattered clouds at 3500 feet AGL
Weather: no significant weather forecast for this period